sensor_id;sensor_type;location;lat;lon;timestamp;P1;durP1;ratioP1;P2;durP2;ratioP2
12768;SDS011;6448;48.916;8.990;2023-03-01T00:01:02;7.40;;;6.80;;
12768;SDS011;6448;48.916;8.990;2023-03-01T00:02:03;7.28;;;6.72;;
12768;SDS011;6448;48.916;8.990;2023-03-01T00:03:05;7.55;;;6.95;;
12768;SDS011;6448;48.916;8.990;2023-03-01T00:04:06;7.40;;;6.80;;
12768;SDS011;6448;48.916;8.990;2023-03-01T00:05:08;7.88;;;7.28;;
12768;SDS011;6448;48.916;8.990;2023-03-01T00:06:09;7.80;;;7.20;;
12768;SDS011;6448;48.916;8.990;2023-03-01T00:07:11;7.07;;;6.50;;
12768;SDS011;6448;48.916;8.990;2023-03-01T00:08:13;7.88;;;7.28;;
12768;SDS011;6448;48.916;8.990;2023-03-01T00:09:15;7.50;;;6.90;;
12768;SDS011;6448;48.916;8.990;2023-03-01T00:10:18;7.60;;;7.00;;
12768;SDS011;6448;48.916;8.990;2023-03-01T00:11:20;8.00;;;7.37;;
12768;SDS011;6448;48.916;8.990;2023-03-01T00:12:22;7.63;;;7.03;;
12768;SDS011;6448;48.916;8.990;2023-03-01T00:13:26;7.78;;;7.18;;
12768;SDS011;6448;48.916;8.990;2023-03-01T00:14:28;8.23;;;7.53;;
12768;SDS011;6448;48.916;8.990;2023-03-01T00:15:29;7.85;;;7.18;;
12768;SDS011;6448;48.916;8.990;2023-03-01T00:16:32;8.20;;;7.50;;
12768;SDS011;6448;48.916;8.990;2023-03-01T00:17:35;8.15;;;7.45;;
12768;SDS011;6448;48.916;8.990;2023-03-01T00:18:36;7.90;;;7.30;;
12768;SDS011;6448;48.916;8.990;2023-03-01T00:19:37;7.78;;;7.18;;
12768;SDS011;6448;48.916;8.990;2023-03-01T00:20:39;7.97;;;7.38;;
12768;SDS011;6448;48.916;8.990;2023-03-01T00:21:40;7.88;;;7.28;;
12768;SDS011;6448;48.916;8.990;2023-03-01T00:22:42;7.70;;;7.10;;
12768;SDS011;6448;48.916;8.990;2023-03-01T00:23:43;8.13;;;7.43;;
12768;SDS011;6448;48.916;8.990;2023-03-01T00:24:46;8.15;;;7.45;;
12768;SDS011;6448;48.916;8.990;2023-03-01T00:25:47;8.10;;;7.50;;
12768;SDS011;6448;48.916;8.990;2023-03-01T00:26:52;8.13;;;7.50;;
12768;SDS011;6448;48.916;8.990;2023-03-01T00:27:55;8.00;;;7.40;;
12768;SDS011;6448;48.916;8.990;2023-03-01T00:28:57;7.63;;;7.03;;
12768;SDS011;6448;48.916;8.990;2023-03-01T00:29:58;7.65;;;7.05;;
12768;SDS011;6448;48.916;8.990;2023-03-01T00:31:02;8.05;;;7.40;;
12768;SDS011;6448;48.916;8.990;2023-03-01T00:32:03;7.55;;;6.95;;
12768;SDS011;6448;48.916;8.990;2023-03-01T00:33:06;7.53;;;6.93;;
12768;SDS011;6448;48.916;8.990;2023-03-01T00:34:06;7.38;;;6.78;;
12768;SDS011;6448;48.916;8.990;2023-03-01T00:35:08;7.43;;;6.82;;
12768;SDS011;6448;48.916;8.990;2023-03-01T00:36:10;7.30;;;6.70;;
12768;SDS011;6448;48.916;8.990;2023-03-01T00:37:14;7.20;;;6.60;;
12768;SDS011;6448;48.916;8.990;2023-03-01T00:38:15;7.20;;;6.60;;
12768;SDS011;6448;48.916;8.990;2023-03-01T00:39:17;7.40;;;6.80;;
12768;SDS011;6448;48.916;8.990;2023-03-01T00:40:19;8.02;;;7.32;;
12768;SDS011;6448;48.916;8.990;2023-03-01T00:41:21;7.68;;;7.07;;
12768;SDS011;6448;48.916;8.990;2023-03-01T00:42:22;7.70;;;7.10;;
12768;SDS011;6448;48.916;8.990;2023-03-01T00:43:24;7.68;;;7.07;;
12768;SDS011;6448;48.916;8.990;2023-03-01T00:44:25;7.77;;;7.17;;
12768;SDS011;6448;48.916;8.990;2023-03-01T00:45:28;7.68;;;7.07;;
12768;SDS011;6448;48.916;8.990;2023-03-01T00:46:30;7.43;;;6.82;;
12768;SDS011;6448;48.916;8.990;2023-03-01T00:47:33;7.68;;;7.07;;
12768;SDS011;6448;48.916;8.990;2023-03-01T00:48:34;8.00;;;7.40;;
12768;SDS011;6448;48.916;8.990;2023-03-01T00:49:37;8.05;;;7.45;;
12768;SDS011;6448;48.916;8.990;2023-03-01T00:50:37;7.65;;;6.95;;
12768;SDS011;6448;48.916;8.990;2023-03-01T00:51:39;8.25;;;7.55;;
12768;SDS011;6448;48.916;8.990;2023-03-01T00:52:41;8.15;;;7.50;;
12768;SDS011;6448;48.916;8.990;2023-03-01T00:53:43;8.15;;;7.47;;
12768;SDS011;6448;48.916;8.990;2023-03-01T00:54:45;7.97;;;7.38;;
12768;SDS011;6448;48.916;8.990;2023-03-01T00:55:48;8.60;;;7.90;;
12768;SDS011;6448;48.916;8.990;2023-03-01T00:56:50;8.25;;;7.65;;
12768;SDS011;6448;48.916;8.990;2023-03-01T00:57:51;8.60;;;7.90;;
12768;SDS011;6448;48.916;8.990;2023-03-01T00:58:52;8.20;;;7.50;;
12768;SDS011;6448;48.916;8.990;2023-03-01T00:59:53;8.68;;;7.97;;
12768;SDS011;6448;48.916;8.990;2023-03-01T01:00:55;8.20;;;7.60;;
12768;SDS011;6448;48.916;8.990;2023-03-01T01:01:56;7.82;;;7.20;;
12768;SDS011;6448;48.916;8.990;2023-03-01T01:02:59;8.00;;;7.40;;
12768;SDS011;6448;48.916;8.990;2023-03-01T01:04:00;8.03;;;7.37;;
12768;SDS011;6448;48.916;8.990;2023-03-01T01:05:05;7.85;;;7.25;;
12768;SDS011;6448;48.916;8.990;2023-03-01T01:06:10;8.55;;;7.85;;
12768;SDS011;6448;48.916;8.990;2023-03-01T01:07:15;7.90;;;7.30;;
12768;SDS011;6448;48.916;8.990;2023-03-01T01:08:16;8.25;;;7.55;;
12768;SDS011;6448;48.916;8.990;2023-03-01T01:09:18;8.90;;;8.10;;
12768;SDS011;6448;48.916;8.990;2023-03-01T01:10:19;9.63;;;8.80;;
12768;SDS011;6448;48.916;8.990;2023-03-01T01:11:23;9.52;;;8.73;;
12768;SDS011;6448;48.916;8.990;2023-03-01T01:12:24;9.83;;;8.93;;
12768;SDS011;6448;48.916;8.990;2023-03-01T01:13:26;9.77;;;8.98;;
12768;SDS011;6448;48.916;8.990;2023-03-01T01:14:27;9.55;;;8.75;;
12768;SDS011;6448;48.916;8.990;2023-03-01T01:15:29;9.70;;;8.90;;
12768;SDS011;6448;48.916;8.990;2023-03-01T01:16:34;8.70;;;8.00;;
12768;SDS011;6448;48.916;8.990;2023-03-01T01:17:36;8.70;;;8.00;;
12768;SDS011;6448;48.916;8.990;2023-03-01T01:18:37;9.18;;;8.38;;
12768;SDS011;6448;48.916;8.990;2023-03-01T01:19:39;9.02;;;8.25;;
12768;SDS011;6448;48.916;8.990;2023-03-01T01:20:40;9.02;;;8.32;;
12768;SDS011;6448;48.916;8.990;2023-03-01T01:21:41;8.70;;;7.90;;
12768;SDS011;6448;48.916;8.990;2023-03-01T01:22:43;8.77;;;8.00;;
12768;SDS011;6448;48.916;8.990;2023-03-01T01:23:45;8.40;;;7.70;;
12768;SDS011;6448;48.916;8.990;2023-03-01T01:24:46;8.25;;;7.55;;
12768;SDS011;6448;48.916;8.990;2023-03-01T01:25:48;7.90;;;7.30;;
12768;SDS011;6448;48.916;8.990;2023-03-01T01:26:50;8.38;;;7.68;;
12768;SDS011;6448;48.916;8.990;2023-03-01T01:27:52;8.35;;;7.65;;
12768;SDS011;6448;48.916;8.990;2023-03-01T01:28:53;8.30;;;7.63;;
12768;SDS011;6448;48.916;8.990;2023-03-01T01:29:55;8.02;;;7.43;;
12768;SDS011;6448;48.916;8.990;2023-03-01T01:30:56;8.60;;;7.90;;
12768;SDS011;6448;48.916;8.990;2023-03-01T01:31:58;8.13;;;7.43;;
12768;SDS011;6448;48.916;8.990;2023-03-01T01:32:59;8.30;;;7.60;;
12768;SDS011;6448;48.916;8.990;2023-03-01T01:34:01;9.07;;;8.27;;
12768;SDS011;6448;48.916;8.990;2023-03-01T01:35:05;8.30;;;7.60;;
12768;SDS011;6448;48.916;8.990;2023-03-01T01:36:06;8.65;;;7.95;;
12768;SDS011;6448;48.916;8.990;2023-03-01T01:37:08;8.43;;;7.72;;
12768;SDS011;6448;48.916;8.990;2023-03-01T01:38:09;8.65;;;7.95;;
12768;SDS011;6448;48.916;8.990;2023-03-01T01:39:11;8.48;;;7.78;;
12768;SDS011;6448;48.916;8.990;2023-03-01T01:40:13;7.88;;;7.25;;
12768;SDS011;6448;48.916;8.990;2023-03-01T01:41:15;8.23;;;7.53;;
12768;SDS011;6448;48.916;8.990;2023-03-01T01:42:18;7.93;;;7.32;;
12768;SDS011;6448;48.916;8.990;2023-03-01T01:43:21;8.00;;;7.40;;
12768;SDS011;6448;48.916;8.990;2023-03-01T01:44:23;8.00;;;7.30;;
12768;SDS011;6448;48.916;8.990;2023-03-01T01:45:31;7.72;;;7.13;;
12768;SDS011;6448;48.916;8.990;2023-03-01T01:46:33;7.88;;;7.28;;
12768;SDS011;6448;48.916;8.990;2023-03-01T01:47:38;8.05;;;7.38;;
12768;SDS011;6448;48.916;8.990;2023-03-01T01:48:41;8.25;;;7.57;;
12768;SDS011;6448;48.916;8.990;2023-03-01T01:49:47;8.00;;;7.40;;
12768;SDS011;6448;48.916;8.990;2023-03-01T01:50:53;8.20;;;7.50;;
12768;SDS011;6448;48.916;8.990;2023-03-01T01:52:00;8.02;;;7.32;;
12768;SDS011;6448;48.916;8.990;2023-03-01T01:53:08;7.75;;;7.15;;
12768;SDS011;6448;48.916;8.990;2023-03-01T01:54:14;7.80;;;7.18;;
12768;SDS011;6448;48.916;8.990;2023-03-01T01:55:19;8.27;;;7.57;;
12768;SDS011;6448;48.916;8.990;2023-03-01T01:56:23;8.13;;;7.43;;
12768;SDS011;6448;48.916;8.990;2023-03-01T01:57:27;8.02;;;7.43;;
12768;SDS011;6448;48.916;8.990;2023-03-01T01:58:34;8.10;;;7.40;;
12768;SDS011;6448;48.916;8.990;2023-03-01T01:59:35;8.32;;;7.63;;
12768;SDS011;6448;48.916;8.990;2023-03-01T02:00:39;8.27;;;7.55;;
12768;SDS011;6448;48.916;8.990;2023-03-01T02:01:39;8.07;;;7.43;;
12768;SDS011;6448;48.916;8.990;2023-03-01T02:02:42;8.13;;;7.45;;
12768;SDS011;6448;48.916;8.990;2023-03-01T02:03:44;8.30;;;7.60;;
12768;SDS011;6448;48.916;8.990;2023-03-01T02:04:48;8.23;;;7.53;;
12768;SDS011;6448;48.916;8.990;2023-03-01T02:05:53;7.93;;;7.30;;
12768;SDS011;6448;48.916;8.990;2023-03-01T02:07:01;8.20;;;7.53;;
12768;SDS011;6448;48.916;8.990;2023-03-01T02:08:05;8.00;;;7.30;;
12768;SDS011;6448;48.916;8.990;2023-03-01T02:09:08;8.43;;;7.72;;
12768;SDS011;6448;48.916;8.990;2023-03-01T02:10:13;8.20;;;7.50;;
12768;SDS011;6448;48.916;8.990;2023-03-01T02:11:15;8.30;;;7.60;;
12768;SDS011;6448;48.916;8.990;2023-03-01T02:12:19;8.30;;;7.60;;
12768;SDS011;6448;48.916;8.990;2023-03-01T02:13:25;8.85;;;8.13;;
12768;SDS011;6448;48.916;8.990;2023-03-01T02:14:28;7.97;;;7.38;;
12768;SDS011;6448;48.916;8.990;2023-03-01T02:15:31;8.10;;;7.40;;
12768;SDS011;6448;48.916;8.990;2023-03-01T02:16:32;8.30;;;7.60;;
12768;SDS011;6448;48.916;8.990;2023-03-01T02:17:35;8.20;;;7.57;;
12768;SDS011;6448;48.916;8.990;2023-03-01T02:18:36;8.20;;;7.50;;
12768;SDS011;6448;48.916;8.990;2023-03-01T02:19:42;8.65;;;7.95;;
12768;SDS011;6448;48.916;8.990;2023-03-01T02:20:54;8.50;;;7.80;;
12768;SDS011;6448;48.916;8.990;2023-03-01T02:22:12;8.40;;;7.70;;
12768;SDS011;6448;48.916;8.990;2023-03-01T02:23:19;8.35;;;7.68;;
12768;SDS011;6448;48.916;8.990;2023-03-01T02:24:21;8.38;;;7.68;;
12768;SDS011;6448;48.916;8.990;2023-03-01T02:25:29;8.20;;;7.60;;
12768;SDS011;6448;48.916;8.990;2023-03-01T02:26:39;8.15;;;7.55;;
12768;SDS011;6448;48.916;8.990;2023-03-01T02:27:45;7.93;;;7.32;;
12768;SDS011;6448;48.916;8.990;2023-03-01T02:28:54;8.13;;;7.50;;
12768;SDS011;6448;48.916;8.990;2023-03-01T02:29:56;8.40;;;7.70;;
12768;SDS011;6448;48.916;8.990;2023-03-01T02:30:56;8.17;;;7.57;;
12768;SDS011;6448;48.916;8.990;2023-03-01T02:32:16;8.70;;;8.00;;
12768;SDS011;6448;48.916;8.990;2023-03-01T02:33:24;8.27;;;7.60;;
12768;SDS011;6448;48.916;8.990;2023-03-01T02:34:27;8.43;;;7.72;;
12768;SDS011;6448;48.916;8.990;2023-03-01T02:35:30;8.77;;;8.02;;
12768;SDS011;6448;48.916;8.990;2023-03-01T02:36:38;8.23;;;7.53;;
12768;SDS011;6448;48.916;8.990;2023-03-01T02:37:43;8.65;;;7.85;;
12768;SDS011;6448;48.916;8.990;2023-03-01T02:38:45;8.32;;;7.65;;
12768;SDS011;6448;48.916;8.990;2023-03-01T02:39:48;7.97;;;7.38;;
12768;SDS011;6448;48.916;8.990;2023-03-01T02:40:54;7.90;;;7.30;;
12768;SDS011;6448;48.916;8.990;2023-03-01T02:41:56;8.60;;;7.80;;
12768;SDS011;6448;48.916;8.990;2023-03-01T02:43:00;9.00;;;8.30;;
12768;SDS011;6448;48.916;8.990;2023-03-01T02:44:02;8.18;;;7.50;;
12768;SDS011;6448;48.916;8.990;2023-03-01T02:45:05;8.48;;;7.78;;
12768;SDS011;6448;48.916;8.990;2023-03-01T02:46:07;7.80;;;7.20;;
12768;SDS011;6448;48.916;8.990;2023-03-01T02:47:14;8.38;;;7.68;;
12768;SDS011;6448;48.916;8.990;2023-03-01T02:48:16;8.70;;;8.00;;
12768;SDS011;6448;48.916;8.990;2023-03-01T02:49:21;8.27;;;7.60;;
12768;SDS011;6448;48.916;8.990;2023-03-01T02:50:33;8.00;;;7.40;;
12768;SDS011;6448;48.916;8.990;2023-03-01T02:53:23;8.43;;;7.78;;
12768;SDS011;6448;48.916;8.990;2023-03-01T02:54:31;8.13;;;7.53;;
12768;SDS011;6448;48.916;8.990;2023-03-01T02:55:39;8.23;;;7.63;;
12768;SDS011;6448;48.916;8.990;2023-03-01T02:56:41;8.20;;;7.57;;
12768;SDS011;6448;48.916;8.990;2023-03-01T02:57:44;8.70;;;8.00;;
12768;SDS011;6448;48.916;8.990;2023-03-01T02:58:50;7.90;;;7.30;;
12768;SDS011;6448;48.916;8.990;2023-03-01T02:59:55;8.50;;;7.80;;
12768;SDS011;6448;48.916;8.990;2023-03-01T03:00:59;8.23;;;7.53;;
12768;SDS011;6448;48.916;8.990;2023-03-01T03:02:02;8.30;;;7.60;;
12768;SDS011;6448;48.916;8.990;2023-03-01T03:03:03;8.40;;;7.70;;
12768;SDS011;6448;48.916;8.990;2023-03-01T03:04:05;8.25;;;7.55;;
12768;SDS011;6448;48.916;8.990;2023-03-01T03:05:09;8.50;;;7.80;;
12768;SDS011;6448;48.916;8.990;2023-03-01T03:06:13;8.43;;;7.72;;
12768;SDS011;6448;48.916;8.990;2023-03-01T03:07:15;8.50;;;7.80;;
12768;SDS011;6448;48.916;8.990;2023-03-01T03:08:17;8.15;;;7.53;;
12768;SDS011;6448;48.916;8.990;2023-03-01T03:09:25;8.23;;;7.57;;
12768;SDS011;6448;48.916;8.990;2023-03-01T03:10:31;8.60;;;7.90;;
12768;SDS011;6448;48.916;8.990;2023-03-01T03:11:33;8.50;;;7.80;;
12768;SDS011;6448;48.916;8.990;2023-03-01T03:12:37;9.32;;;8.52;;
12768;SDS011;6448;48.916;8.990;2023-03-01T03:13:38;9.07;;;8.27;;
12768;SDS011;6448;48.916;8.990;2023-03-01T03:14:49;8.73;;;8.02;;
12768;SDS011;6448;48.916;8.990;2023-03-01T03:15:51;9.07;;;8.37;;
12768;SDS011;6448;48.916;8.990;2023-03-01T03:16:53;8.90;;;8.10;;
12768;SDS011;6448;48.916;8.990;2023-03-01T03:17:55;8.93;;;8.23;;
12768;SDS011;6448;48.916;8.990;2023-03-01T03:18:57;9.20;;;8.43;;
12768;SDS011;6448;48.916;8.990;2023-03-01T03:20:05;8.97;;;8.27;;
12768;SDS011;6448;48.916;8.990;2023-03-01T03:21:11;8.90;;;8.20;;
12768;SDS011;6448;48.916;8.990;2023-03-01T03:22:13;9.10;;;8.40;;
12768;SDS011;6448;48.916;8.990;2023-03-01T03:23:15;9.60;;;8.80;;
12768;SDS011;6448;48.916;8.990;2023-03-01T03:24:16;9.05;;;8.35;;
12768;SDS011;6448;48.916;8.990;2023-03-01T03:25:18;8.57;;;7.88;;
12768;SDS011;6448;48.916;8.990;2023-03-01T03:26:20;8.50;;;7.80;;
12768;SDS011;6448;48.916;8.990;2023-03-01T03:27:22;9.00;;;8.23;;
12768;SDS011;6448;48.916;8.990;2023-03-01T03:28:22;8.90;;;8.13;;
12768;SDS011;6448;48.916;8.990;2023-03-01T03:29:24;8.82;;;8.02;;
12768;SDS011;6448;48.916;8.990;2023-03-01T03:30:26;8.70;;;8.00;;
12768;SDS011;6448;48.916;8.990;2023-03-01T03:31:31;8.57;;;7.88;;
12768;SDS011;6448;48.916;8.990;2023-03-01T03:32:31;8.30;;;7.60;;
12768;SDS011;6448;48.916;8.990;2023-03-01T03:33:33;8.30;;;7.60;;
12768;SDS011;6448;48.916;8.990;2023-03-01T03:34:34;8.05;;;7.45;;
12768;SDS011;6448;48.916;8.990;2023-03-01T03:35:38;8.43;;;7.72;;
12768;SDS011;6448;48.916;8.990;2023-03-01T03:36:40;8.13;;;7.43;;
12768;SDS011;6448;48.916;8.990;2023-03-01T03:37:42;8.80;;;8.00;;
12768;SDS011;6448;48.916;8.990;2023-03-01T03:39:01;8.48;;;7.78;;
12768;SDS011;6448;48.916;8.990;2023-03-01T03:40:06;8.60;;;7.90;;
12768;SDS011;6448;48.916;8.990;2023-03-01T03:41:15;8.40;;;7.70;;
12768;SDS011;6448;48.916;8.990;2023-03-01T03:42:18;8.32;;;7.63;;
12768;SDS011;6448;48.916;8.990;2023-03-01T03:43:19;8.32;;;7.63;;
12768;SDS011;6448;48.916;8.990;2023-03-01T03:44:22;8.48;;;7.78;;
12768;SDS011;6448;48.916;8.990;2023-03-01T03:45:22;8.67;;;7.97;;
12768;SDS011;6448;48.916;8.990;2023-03-01T03:46:24;8.57;;;7.88;;
12768;SDS011;6448;48.916;8.990;2023-03-01T03:47:27;8.88;;;8.18;;
12768;SDS011;6448;48.916;8.990;2023-03-01T03:48:29;8.82;;;8.13;;
12768;SDS011;6448;48.916;8.990;2023-03-01T03:49:29;8.53;;;7.83;;
12768;SDS011;6448;48.916;8.990;2023-03-01T03:50:31;8.60;;;7.97;;
12768;SDS011;6448;48.916;8.990;2023-03-01T03:51:32;8.95;;;8.25;;
12768;SDS011;6448;48.916;8.990;2023-03-01T03:52:34;9.18;;;8.48;;
12768;SDS011;6448;48.916;8.990;2023-03-01T03:53:35;8.70;;;8.00;;
12768;SDS011;6448;48.916;8.990;2023-03-01T03:54:36;8.60;;;7.90;;
12768;SDS011;6448;48.916;8.990;2023-03-01T03:55:37;8.15;;;7.55;;
12768;SDS011;6448;48.916;8.990;2023-03-01T03:56:40;8.48;;;7.85;;
12768;SDS011;6448;48.916;8.990;2023-03-01T03:57:41;8.68;;;7.97;;
12768;SDS011;6448;48.916;8.990;2023-03-01T03:58:42;8.27;;;7.57;;
12768;SDS011;6448;48.916;8.990;2023-03-01T03:59:43;8.40;;;7.70;;
12768;SDS011;6448;48.916;8.990;2023-03-01T04:00:46;8.80;;;8.10;;
12768;SDS011;6448;48.916;8.990;2023-03-01T04:01:48;8.40;;;7.72;;
12768;SDS011;6448;48.916;8.990;2023-03-01T04:02:51;8.75;;;8.05;;
12768;SDS011;6448;48.916;8.990;2023-03-01T04:03:56;8.57;;;7.97;;
12768;SDS011;6448;48.916;8.990;2023-03-01T04:05:04;9.20;;;8.40;;
12768;SDS011;6448;48.916;8.990;2023-03-01T04:06:05;8.93;;;8.23;;
12768;SDS011;6448;48.916;8.990;2023-03-01T04:07:07;8.57;;;7.88;;
12768;SDS011;6448;48.916;8.990;2023-03-01T04:08:08;8.40;;;7.70;;
12768;SDS011;6448;48.916;8.990;2023-03-01T04:09:10;8.93;;;8.23;;
12768;SDS011;6448;48.916;8.990;2023-03-01T04:10:13;8.73;;;8.02;;
12768;SDS011;6448;48.916;8.990;2023-03-01T04:11:15;8.85;;;8.15;;
12768;SDS011;6448;48.916;8.990;2023-03-01T04:12:29;8.50;;;7.80;;
12768;SDS011;6448;48.916;8.990;2023-03-01T04:13:30;8.80;;;8.10;;
12768;SDS011;6448;48.916;8.990;2023-03-01T04:14:32;8.55;;;7.85;;
12768;SDS011;6448;48.916;8.990;2023-03-01T04:15:33;8.70;;;8.00;;
12768;SDS011;6448;48.916;8.990;2023-03-01T04:16:35;8.52;;;7.82;;
12768;SDS011;6448;48.916;8.990;2023-03-01T04:17:36;8.77;;;8.07;;
12768;SDS011;6448;48.916;8.990;2023-03-01T04:18:40;8.48;;;7.80;;
12768;SDS011;6448;48.916;8.990;2023-03-01T04:19:41;8.73;;;8.02;;
12768;SDS011;6448;48.916;8.990;2023-03-01T04:20:44;8.55;;;7.85;;
12768;SDS011;6448;48.916;8.990;2023-03-01T04:21:45;9.18;;;8.40;;
12768;SDS011;6448;48.916;8.990;2023-03-01T04:22:47;8.60;;;7.90;;
12768;SDS011;6448;48.916;8.990;2023-03-01T04:23:48;8.43;;;7.72;;
12768;SDS011;6448;48.916;8.990;2023-03-01T04:24:52;8.82;;;8.13;;
12768;SDS011;6448;48.916;8.990;2023-03-01T04:25:53;8.60;;;7.90;;
12768;SDS011;6448;48.916;8.990;2023-03-01T04:26:56;8.50;;;7.80;;
12768;SDS011;6448;48.916;8.990;2023-03-01T04:27:57;8.70;;;8.00;;
12768;SDS011;6448;48.916;8.990;2023-03-01T04:28:59;8.80;;;8.10;;
12768;SDS011;6448;48.916;8.990;2023-03-01T04:30:00;8.80;;;8.10;;
12768;SDS011;6448;48.916;8.990;2023-03-01T04:31:02;8.70;;;8.00;;
12768;SDS011;6448;48.916;8.990;2023-03-01T04:32:12;8.80;;;8.07;;
12768;SDS011;6448;48.916;8.990;2023-03-01T04:33:16;8.55;;;7.88;;
12768;SDS011;6448;48.916;8.990;2023-03-01T04:34:19;8.52;;;7.82;;
12768;SDS011;6448;48.916;8.990;2023-03-01T04:35:20;9.02;;;8.32;;
12768;SDS011;6448;48.916;8.990;2023-03-01T04:36:22;9.07;;;8.38;;
12768;SDS011;6448;48.916;8.990;2023-03-01T04:37:25;8.70;;;7.95;;
12768;SDS011;6448;48.916;8.990;2023-03-01T04:38:26;9.73;;;8.93;;
12768;SDS011;6448;48.916;8.990;2023-03-01T04:39:28;9.57;;;8.77;;
12768;SDS011;6448;48.916;8.990;2023-03-01T04:40:29;9.48;;;8.68;;
12768;SDS011;6448;48.916;8.990;2023-03-01T04:41:31;9.73;;;8.93;;
12768;SDS011;6448;48.916;8.990;2023-03-01T04:42:31;9.47;;;8.77;;
12768;SDS011;6448;48.916;8.990;2023-03-01T04:43:33;9.50;;;8.70;;
12768;SDS011;6448;48.916;8.990;2023-03-01T04:44:34;9.30;;;8.50;;
12768;SDS011;6448;48.916;8.990;2023-03-01T04:45:36;9.33;;;8.63;;
12768;SDS011;6448;48.916;8.990;2023-03-01T04:46:36;9.93;;;9.13;;
12768;SDS011;6448;48.916;8.990;2023-03-01T04:47:39;11.00;;;10.10;;
12768;SDS011;6448;48.916;8.990;2023-03-01T04:48:40;11.32;;;10.43;;
12768;SDS011;6448;48.916;8.990;2023-03-01T04:49:45;11.23;;;10.40;;
12768;SDS011;6448;48.916;8.990;2023-03-01T04:50:45;11.00;;;10.10;;
12768;SDS011;6448;48.916;8.990;2023-03-01T04:51:47;11.07;;;10.25;;
12768;SDS011;6448;48.916;8.990;2023-03-01T04:52:48;10.88;;;9.98;;
12768;SDS011;6448;48.916;8.990;2023-03-01T04:53:50;10.98;;;10.07;;
12768;SDS011;6448;48.916;8.990;2023-03-01T04:54:52;10.70;;;9.82;;
12768;SDS011;6448;48.916;8.990;2023-03-01T04:55:53;10.52;;;9.73;;
12768;SDS011;6448;48.916;8.990;2023-03-01T04:56:55;10.10;;;9.30;;
12768;SDS011;6448;48.916;8.990;2023-03-01T04:57:56;10.68;;;9.88;;
12768;SDS011;6448;48.916;8.990;2023-03-01T04:58:58;9.98;;;9.15;;
12768;SDS011;6448;48.916;8.990;2023-03-01T05:00:00;10.00;;;9.20;;
12768;SDS011;6448;48.916;8.990;2023-03-01T05:01:01;9.63;;;8.93;;
12768;SDS011;6448;48.916;8.990;2023-03-01T05:02:14;9.18;;;8.48;;
12768;SDS011;6448;48.916;8.990;2023-03-01T05:03:15;8.82;;;8.10;;
12768;SDS011;6448;48.916;8.990;2023-03-01T05:04:18;9.18;;;8.48;;
12768;SDS011;6448;48.916;8.990;2023-03-01T05:05:21;9.45;;;8.70;;
12768;SDS011;6448;48.916;8.990;2023-03-01T05:06:25;9.07;;;8.38;;
12768;SDS011;6448;48.916;8.990;2023-03-01T05:07:27;9.55;;;8.75;;
12768;SDS011;6448;48.916;8.990;2023-03-01T05:08:28;9.57;;;8.77;;
12768;SDS011;6448;48.916;8.990;2023-03-01T05:09:30;9.80;;;9.00;;
12768;SDS011;6448;48.916;8.990;2023-03-01T05:10:31;9.75;;;8.90;;
12768;SDS011;6448;48.916;8.990;2023-03-01T05:11:35;9.73;;;8.93;;
12768;SDS011;6448;48.916;8.990;2023-03-01T05:12:36;9.25;;;8.55;;
12768;SDS011;6448;48.916;8.990;2023-03-01T05:13:38;9.27;;;8.57;;
12768;SDS011;6448;48.916;8.990;2023-03-01T05:14:40;9.23;;;8.50;;
12768;SDS011;6448;48.916;8.990;2023-03-01T05:15:42;9.25;;;8.45;;
12768;SDS011;6448;48.916;8.990;2023-03-01T05:16:43;9.18;;;8.48;;
12768;SDS011;6448;48.916;8.990;2023-03-01T05:17:44;9.40;;;8.70;;
12768;SDS011;6448;48.916;8.990;2023-03-01T05:18:46;8.90;;;8.20;;
12768;SDS011;6448;48.916;8.990;2023-03-01T05:19:47;9.20;;;8.50;;
12768;SDS011;6448;48.916;8.990;2023-03-01T05:20:50;9.40;;;8.63;;
12768;SDS011;6448;48.916;8.990;2023-03-01T05:21:51;9.25;;;8.45;;
12768;SDS011;6448;48.916;8.990;2023-03-01T05:23:04;9.07;;;8.38;;
12768;SDS011;6448;48.916;8.990;2023-03-01T05:24:06;9.02;;;8.32;;
12768;SDS011;6448;48.916;8.990;2023-03-01T05:25:11;9.30;;;8.50;;
12768;SDS011;6448;48.916;8.990;2023-03-01T05:26:14;8.93;;;8.23;;
12768;SDS011;6448;48.916;8.990;2023-03-01T05:27:15;8.90;;;8.20;;
12768;SDS011;6448;48.916;8.990;2023-03-01T05:28:17;9.10;;;8.40;;
12768;SDS011;6448;48.916;8.990;2023-03-01T05:29:19;8.85;;;8.15;;
12768;SDS011;6448;48.916;8.990;2023-03-01T05:30:25;9.18;;;8.48;;
12768;SDS011;6448;48.916;8.990;2023-03-01T05:31:25;9.47;;;8.77;;
12768;SDS011;6448;48.916;8.990;2023-03-01T05:32:27;8.35;;;7.75;;
12768;SDS011;6448;48.916;8.990;2023-03-01T05:33:32;9.40;;;8.60;;
12768;SDS011;6448;48.916;8.990;2023-03-01T05:34:34;9.20;;;8.40;;
12768;SDS011;6448;48.916;8.990;2023-03-01T05:35:36;9.27;;;8.57;;
12768;SDS011;6448;48.916;8.990;2023-03-01T05:36:39;9.77;;;8.98;;
12768;SDS011;6448;48.916;8.990;2023-03-01T05:37:40;9.60;;;8.80;;
12768;SDS011;6448;48.916;8.990;2023-03-01T05:38:43;9.05;;;8.35;;
12768;SDS011;6448;48.916;8.990;2023-03-01T05:39:44;9.27;;;8.57;;
12768;SDS011;6448;48.916;8.990;2023-03-01T05:40:46;9.50;;;8.75;;
12768;SDS011;6448;48.916;8.990;2023-03-01T05:41:48;9.50;;;8.70;;
12768;SDS011;6448;48.916;8.990;2023-03-01T05:42:54;9.32;;;8.57;;
12768;SDS011;6448;48.916;8.990;2023-03-01T05:43:56;8.88;;;8.18;;
12768;SDS011;6448;48.916;8.990;2023-03-01T05:44:57;9.10;;;8.40;;
12768;SDS011;6448;48.916;8.990;2023-03-01T05:45:58;8.88;;;8.13;;
12768;SDS011;6448;48.916;8.990;2023-03-01T05:47:00;9.35;;;8.65;;
12768;SDS011;6448;48.916;8.990;2023-03-01T05:48:01;9.50;;;8.70;;
12768;SDS011;6448;48.916;8.990;2023-03-01T05:49:02;9.07;;;8.38;;
12768;SDS011;6448;48.916;8.990;2023-03-01T05:50:04;9.38;;;8.65;;
12768;SDS011;6448;48.916;8.990;2023-03-01T05:51:07;9.52;;;8.73;;
12768;SDS011;6448;48.916;8.990;2023-03-01T05:52:10;9.15;;;8.45;;
12768;SDS011;6448;48.916;8.990;2023-03-01T05:53:11;9.02;;;8.32;;
12768;SDS011;6448;48.916;8.990;2023-03-01T05:54:14;8.80;;;8.10;;
12768;SDS011;6448;48.916;8.990;2023-03-01T05:55:16;9.07;;;8.38;;
12768;SDS011;6448;48.916;8.990;2023-03-01T05:56:18;9.68;;;8.88;;
12768;SDS011;6448;48.916;8.990;2023-03-01T05:57:22;9.35;;;8.65;;
12768;SDS011;6448;48.916;8.990;2023-03-01T05:58:23;9.23;;;8.43;;
12768;SDS011;6448;48.916;8.990;2023-03-01T05:59:24;9.38;;;8.68;;
12768;SDS011;6448;48.916;8.990;2023-03-01T06:00:25;9.77;;;9.07;;
12768;SDS011;6448;48.916;8.990;2023-03-01T06:01:27;9.35;;;8.55;;
12768;SDS011;6448;48.916;8.990;2023-03-01T06:02:29;9.82;;;9.02;;
12768;SDS011;6448;48.916;8.990;2023-03-01T06:03:30;9.75;;;8.95;;
12768;SDS011;6448;48.916;8.990;2023-03-01T06:04:32;9.50;;;8.80;;
12768;SDS011;6448;48.916;8.990;2023-03-01T06:05:32;11.65;;;10.65;;
12768;SDS011;6448;48.916;8.990;2023-03-01T06:06:34;12.05;;;11.05;;
12768;SDS011;6448;48.916;8.990;2023-03-01T06:07:38;10.85;;;9.95;;
12768;SDS011;6448;48.916;8.990;2023-03-01T06:08:41;9.68;;;8.88;;
12768;SDS011;6448;48.916;8.990;2023-03-01T06:09:42;10.00;;;9.20;;
12768;SDS011;6448;48.916;8.990;2023-03-01T06:10:44;9.63;;;8.82;;
12768;SDS011;6448;48.916;8.990;2023-03-01T06:11:47;9.60;;;8.80;;
12768;SDS011;6448;48.916;8.990;2023-03-01T06:12:48;9.65;;;8.85;;
12768;SDS011;6448;48.916;8.990;2023-03-01T06:13:50;9.73;;;8.93;;
12768;SDS011;6448;48.916;8.990;2023-03-01T06:14:51;10.18;;;9.38;;
12768;SDS011;6448;48.916;8.990;2023-03-01T06:15:53;10.30;;;9.50;;
12768;SDS011;6448;48.916;8.990;2023-03-01T06:16:54;10.07;;;9.27;;
12768;SDS011;6448;48.916;8.990;2023-03-01T06:17:55;10.25;;;9.45;;
12768;SDS011;6448;48.916;8.990;2023-03-01T06:18:58;10.95;;;9.95;;
12768;SDS011;6448;48.916;8.990;2023-03-01T06:19:58;12.20;;;11.20;;
12768;SDS011;6448;48.916;8.990;2023-03-01T06:21:01;12.40;;;11.40;;
12768;SDS011;6448;48.916;8.990;2023-03-01T06:22:02;12.40;;;11.35;;
12768;SDS011;6448;48.916;8.990;2023-03-01T06:23:05;12.15;;;11.15;;
12768;SDS011;6448;48.916;8.990;2023-03-01T06:24:07;12.43;;;11.40;;
12768;SDS011;6448;48.916;8.990;2023-03-01T06:25:08;12.13;;;11.13;;
12768;SDS011;6448;48.916;8.990;2023-03-01T06:26:12;12.15;;;11.05;;